sensor_id;sensor_type;location;lat;lon;timestamp;pressure;altitude;pressure_sealevel;temperature;humidity
51271;BME280;37744;50.960;4.136;2022-08-19T00:01:37;100979.59;;;19.86;92.63
51271;BME280;37744;50.960;4.136;2022-08-19T00:04:05;100973.88;;;19.80;93.55
51271;BME280;37744;50.960;4.136;2022-08-19T00:06:34;100973.88;;;19.80;93.47
51271;BME280;37744;50.960;4.136;2022-08-19T00:09:06;100968.75;;;19.77;93.19
51271;BME280;37744;50.960;4.136;2022-08-19T00:11:32;100980.38;;;19.76;92.54
51271;BME280;37744;50.960;4.136;2022-08-19T00:14:06;100983.06;;;19.76;92.26
51271;BME280;37744;50.960;4.136;2022-08-19T00:16:32;100986.22;;;19.68;91.98
51271;BME280;37744;50.960;4.136;2022-08-19T00:19:00;100984.75;;;19.64;92.25
51271;BME280;37744;50.960;4.136;2022-08-19T00:21:27;100990.16;;;19.62;92.86
51271;BME280;37744;50.960;4.136;2022-08-19T00:23:55;100998.16;;;19.62;92.73
51271;BME280;37744;50.960;4.136;2022-08-19T00:26:27;100995.22;;;19.54;92.24
51271;BME280;37744;50.960;4.136;2022-08-19T00:28:53;100993.50;;;19.53;92.08
51271;BME280;37744;50.960;4.136;2022-08-19T00:31:24;100989.22;;;19.50;91.20
51271;BME280;37744;50.960;4.136;2022-08-19T00:33:51;100977.72;;;19.50;91.16
51271;BME280;37744;50.960;4.136;2022-08-19T00:36:18;100982.31;;;19.48;91.97
51271;BME280;37744;50.960;4.136;2022-08-19T00:38:46;100979.00;;;19.44;91.74
51271;BME280;37744;50.960;4.136;2022-08-19T00:41:18;100981.78;;;19.42;91.11
51271;BME280;37744;50.960;4.136;2022-08-19T00:44:06;100986.88;;;19.32;91.47
51271;BME280;37744;50.960;4.136;2022-08-19T00:46:40;100988.38;;;19.24;91.41
51271;BME280;37744;50.960;4.136;2022-08-19T00:49:30;100988.97;;;19.14;90.95
51271;BME280;37744;50.960;4.136;2022-08-19T00:52:15;100982.38;;;19.07;89.85
51271;BME280;37744;50.960;4.136;2022-08-19T00:54:45;100974.41;;;19.07;90.07
51271;BME280;37744;50.960;4.136;2022-08-19T00:57:17;100969.16;;;19.06;90.90
51271;BME280;37744;50.960;4.136;2022-08-19T00:59:47;100974.28;;;19.09;92.97
51271;BME280;37744;50.960;4.136;2022-08-19T01:02:16;100973.22;;;19.11;93.38
51271;BME280;37744;50.960;4.136;2022-08-19T01:04:44;100975.97;;;19.10;93.47
51271;BME280;37744;50.960;4.136;2022-08-19T01:07:13;100982.38;;;19.07;94.46
51271;BME280;37744;50.960;4.136;2022-08-19T01:09:44;100983.44;;;19.04;95.36
51271;BME280;37744;50.960;4.136;2022-08-19T01:12:17;100973.84;;;19.02;94.37
51271;BME280;37744;50.960;4.136;2022-08-19T01:14:44;100977.84;;;18.95;93.48
51271;BME280;37744;50.960;4.136;2022-08-19T01:17:13;100981.47;;;18.94;93.19
51271;BME280;37744;50.960;4.136;2022-08-19T01:19:45;100982.75;;;18.88;93.39
51271;BME280;37744;50.960;4.136;2022-08-19T01:24:51;100986.16;;;18.90;94.15
51271;BME280;37744;50.960;4.136;2022-08-19T01:27:18;100986.25;;;18.88;94.30
51271;BME280;37744;50.960;4.136;2022-08-19T01:29:45;100981.88;;;18.87;93.67
51271;BME280;37744;50.960;4.136;2022-08-19T01:32:16;100989.94;;;18.86;92.96
51271;BME280;37744;50.960;4.136;2022-08-19T01:34:42;100986.00;;;18.79;93.31
51271;BME280;37744;50.960;4.136;2022-08-19T01:37:15;100986.09;;;18.77;93.65
51271;BME280;37744;50.960;4.136;2022-08-19T01:39:44;100987.81;;;18.78;93.52
51271;BME280;37744;50.960;4.136;2022-08-19T01:42:12;100988.03;;;18.75;93.14
51271;BME280;37744;50.960;4.136;2022-08-19T01:44:39;100989.94;;;18.73;94.05
51271;BME280;37744;50.960;4.136;2022-08-19T01:47:08;100991.06;;;18.69;93.42
51271;BME280;37744;50.960;4.136;2022-08-19T01:49:37;100990.63;;;18.62;94.07
51271;BME280;37744;50.960;4.136;2022-08-19T01:52:08;100984.75;;;18.57;93.22
51271;BME280;37744;50.960;4.136;2022-08-19T01:54:37;100986.56;;;18.56;92.90
51271;BME280;37744;50.960;4.136;2022-08-19T01:57:11;100996.00;;;18.47;93.71
51271;BME280;37744;50.960;4.136;2022-08-19T01:59:40;100991.72;;;18.45;94.17
51271;BME280;37744;50.960;4.136;2022-08-19T02:02:10;100991.94;;;18.42;94.19
51271;BME280;37744;50.960;4.136;2022-08-19T02:04:39;100992.13;;;18.39;94.51
51271;BME280;37744;50.960;4.136;2022-08-19T02:07:06;100998.28;;;18.39;94.65
51271;BME280;37744;50.960;4.136;2022-08-19T02:09:36;100989.47;;;18.39;94.78
51271;BME280;37744;50.960;4.136;2022-08-19T02:12:01;100991.56;;;18.33;94.43
51271;BME280;37744;50.960;4.136;2022-08-19T02:14:28;100993.28;;;18.34;94.31
51271;BME280;37744;50.960;4.136;2022-08-19T02:16:54;100989.13;;;18.30;93.27
51271;BME280;37744;50.960;4.136;2022-08-19T02:19:21;100983.78;;;18.30;93.80
51271;BME280;37744;50.960;4.136;2022-08-19T02:21:54;100983.13;;;18.27;93.33
51271;BME280;37744;50.960;4.136;2022-08-19T02:24:29;100989.69;;;18.21;92.45
51271;BME280;37744;50.960;4.136;2022-08-19T02:26:56;100983.63;;;18.19;92.24
51271;BME280;37744;50.960;4.136;2022-08-19T02:29:22;100986.50;;;18.16;92.90
51271;BME280;37744;50.960;4.136;2022-08-19T02:31:49;100996.47;;;18.12;92.49
51271;BME280;37744;50.960;4.136;2022-08-19T02:34:16;100990.47;;;18.09;92.70
51271;BME280;37744;50.960;4.136;2022-08-19T02:36:41;100988.56;;;18.11;92.29
51271;BME280;37744;50.960;4.136;2022-08-19T02:39:09;100995.78;;;18.09;92.47
51271;BME280;37744;50.960;4.136;2022-08-19T02:41:35;100993.34;;;18.05;92.58
51271;BME280;37744;50.960;4.136;2022-08-19T02:44:03;100990.84;;;18.02;92.89
51271;BME280;37744;50.960;4.136;2022-08-19T02:46:33;100996.34;;;17.99;93.39
51271;BME280;37744;50.960;4.136;2022-08-19T02:49:06;100991.03;;;17.99;93.61
51271;BME280;37744;50.960;4.136;2022-08-19T02:51:40;100983.72;;;17.88;93.45
51271;BME280;37744;50.960;4.136;2022-08-19T02:54:09;100991.91;;;17.85;94.20
51271;BME280;37744;50.960;4.136;2022-08-19T02:56:42;100983.81;;;17.87;95.07
51271;BME280;37744;50.960;4.136;2022-08-19T02:59:11;100984.09;;;17.82;94.87
51271;BME280;37744;50.960;4.136;2022-08-19T03:01:38;100983.06;;;17.85;94.57
51271;BME280;37744;50.960;4.136;2022-08-19T03:04:09;100979.84;;;17.79;94.53
51271;BME280;37744;50.960;4.136;2022-08-19T03:06:44;100973.75;;;17.77;94.31
51271;BME280;37744;50.960;4.136;2022-08-19T03:09:13;100974.72;;;17.76;94.37
51271;BME280;37744;50.960;4.136;2022-08-19T03:11:40;100977.47;;;17.75;94.93
51271;BME280;37744;50.960;4.136;2022-08-19T03:14:09;100973.00;;;17.75;95.20
51271;BME280;37744;50.960;4.136;2022-08-19T03:16:42;100980.63;;;17.67;95.81
51271;BME280;37744;50.960;4.136;2022-08-19T03:19:09;100970.00;;;17.67;95.57
51271;BME280;37744;50.960;4.136;2022-08-19T03:21:43;100970.16;;;17.64;94.89
51271;BME280;37744;50.960;4.136;2022-08-19T03:24:13;100978.31;;;17.61;95.85
51271;BME280;37744;50.960;4.136;2022-08-19T03:26:46;100976.44;;;17.63;96.33
51271;BME280;37744;50.960;4.136;2022-08-19T03:29:16;100977.78;;;17.56;95.89
51271;BME280;37744;50.960;4.136;2022-08-19T03:31:45;100975.88;;;17.43;96.49
51271;BME280;37744;50.960;4.136;2022-08-19T03:34:17;100978.53;;;17.43;96.52
51271;BME280;37744;50.960;4.136;2022-08-19T03:36:44;100970.72;;;17.40;96.38
51271;BME280;37744;50.960;4.136;2022-08-19T03:39:13;100968.94;;;17.41;96.43
51271;BME280;37744;50.960;4.136;2022-08-19T03:41:41;100964.38;;;17.43;96.23
51271;BME280;37744;50.960;4.136;2022-08-19T03:44:21;100966.09;;;17.44;95.68
51271;BME280;37744;50.960;4.136;2022-08-19T03:46:54;100964.66;;;17.38;96.63
51271;BME280;37744;50.960;4.136;2022-08-19T03:49:23;100962.47;;;17.30;97.14
51271;BME280;37744;50.960;4.136;2022-08-19T03:51:51;100967.09;;;17.27;97.72
51271;BME280;37744;50.960;4.136;2022-08-19T03:54:22;100969.47;;;17.31;98.30
51271;BME280;37744;50.960;4.136;2022-08-19T03:56:52;100967.97;;;17.27;97.29
51271;BME280;37744;50.960;4.136;2022-08-19T03:59:32;100970.78;;;17.24;97.73
51271;BME280;37744;50.960;4.136;2022-08-19T04:02:03;100972.69;;;17.22;97.67
51271;BME280;37744;50.960;4.136;2022-08-19T04:04:32;100975.34;;;17.22;99.12
51271;BME280;37744;50.960;4.136;2022-08-19T04:06:58;100978.09;;;17.20;99.46
51271;BME280;37744;50.960;4.136;2022-08-19T04:09:26;100973.16;;;17.14;100.00
51271;BME280;37744;50.960;4.136;2022-08-19T04:11:54;100976.94;;;17.10;100.00
51271;BME280;37744;50.960;4.136;2022-08-19T04:14:25;100976.00;;;17.11;100.00
51271;BME280;37744;50.960;4.136;2022-08-19T04:16:55;100979.41;;;17.13;100.00
51271;BME280;37744;50.960;4.136;2022-08-19T04:19:23;100982.13;;;17.12;100.00
51271;BME280;37744;50.960;4.136;2022-08-19T04:21:52;100985.84;;;17.09;100.00
51271;BME280;37744;50.960;4.136;2022-08-19T04:24:21;100987.56;;;17.10;100.00
51271;BME280;37744;50.960;4.136;2022-08-19T04:26:49;100982.78;;;17.01;100.00
51271;BME280;37744;50.960;4.136;2022-08-19T04:29:23;100975.59;;;17.03;100.00
51271;BME280;37744;50.960;4.136;2022-08-19T04:31:54;100974.81;;;17.01;100.00
51271;BME280;37744;50.960;4.136;2022-08-19T04:34:22;100979.34;;;16.99;100.00
51271;BME280;37744;50.960;4.136;2022-08-19T04:36:52;100976.78;;;16.97;100.00
51271;BME280;37744;50.960;4.136;2022-08-19T04:39:25;100971.91;;;16.89;100.00
51271;BME280;37744;50.960;4.136;2022-08-19T04:42:13;100977.22;;;16.89;100.00
51271;BME280;37744;50.960;4.136;2022-08-19T04:45:05;100981.78;;;16.87;100.00
51271;BME280;37744;50.960;4.136;2022-08-19T04:47:33;100970.28;;;16.87;100.00
51271;BME280;37744;50.960;4.136;2022-08-19T04:49:59;100969.44;;;16.86;100.00
51271;BME280;37744;50.960;4.136;2022-08-19T04:52:31;100969.25;;;16.89;100.00
51271;BME280;37744;50.960;4.136;2022-08-19T04:54:58;100963.97;;;16.89;100.00
51271;BME280;37744;50.960;4.136;2022-08-19T04:57:26;100970.88;;;16.92;100.00
51271;BME280;37744;50.960;4.136;2022-08-19T04:59:58;100964.91;;;16.88;100.00
51271;BME280;37744;50.960;4.136;2022-08-19T05:02:25;100973.19;;;16.82;100.00
51271;BME280;37744;50.960;4.136;2022-08-19T05:04:59;100974.34;;;16.78;100.00
51271;BME280;37744;50.960;4.136;2022-08-19T05:07:36;100977.34;;;16.72;100.00
51271;BME280;37744;50.960;4.136;2022-08-19T05:10:05;100971.69;;;16.78;100.00
51271;BME280;37744;50.960;4.136;2022-08-19T05:12:31;100981.63;;;16.74;100.00
51271;BME280;37744;50.960;4.136;2022-08-19T05:14:58;100977.94;;;16.77;100.00
51271;BME280;37744;50.960;4.136;2022-08-19T05:17:27;100984.00;;;16.79;100.00
51271;BME280;37744;50.960;4.136;2022-08-19T05:19:55;100982.97;;;16.81;100.00
51271;BME280;37744;50.960;4.136;2022-08-19T05:22:41;100975.78;;;16.84;100.00
51271;BME280;37744;50.960;4.136;2022-08-19T05:25:12;100984.50;;;16.86;100.00
51271;BME280;37744;50.960;4.136;2022-08-19T05:27:43;100991.59;;;16.85;100.00
51271;BME280;37744;50.960;4.136;2022-08-19T05:30:15;100988.94;;;16.85;100.00
51271;BME280;37744;50.960;4.136;2022-08-19T05:32:42;100984.75;;;16.81;100.00
51271;BME280;37744;50.960;4.136;2022-08-19T05:35:11;100988.03;;;16.86;100.00
51271;BME280;37744;50.960;4.136;2022-08-19T05:37:38;100982.53;;;16.89;100.00
51271;BME280;37744;50.960;4.136;2022-08-19T05:40:09;100985.69;;;16.96;100.00
51271;BME280;37744;50.960;4.136;2022-08-19T05:42:35;100984.81;;;16.95;100.00
51271;BME280;37744;50.960;4.136;2022-08-19T05:45:04;100992.69;;;16.97;100.00
51271;BME280;37744;50.960;4.136;2022-08-19T05:47:31;100991.69;;;17.00;100.00
51271;BME280;37744;50.960;4.136;2022-08-19T05:49:58;100994.09;;;17.04;100.00
51271;BME280;37744;50.960;4.136;2022-08-19T05:52:27;100986.97;;;17.05;100.00
51271;BME280;37744;50.960;4.136;2022-08-19T05:54:56;100988.50;;;17.09;100.00
51271;BME280;37744;50.960;4.136;2022-08-19T05:57:23;100988.41;;;17.11;100.00
51271;BME280;37744;50.960;4.136;2022-08-19T05:59:51;100988.22;;;17.14;100.00
51271;BME280;37744;50.960;4.136;2022-08-19T06:02:19;100988.41;;;17.25;100.00
51271;BME280;37744;50.960;4.136;2022-08-19T06:04:46;100984.53;;;17.31;100.00
51271;BME280;37744;50.960;4.136;2022-08-19T06:07:13;100997.66;;;17.34;100.00
51271;BME280;37744;50.960;4.136;2022-08-19T06:09:46;100996.16;;;17.44;100.00
51271;BME280;37744;50.960;4.136;2022-08-19T06:12:15;100997.13;;;17.43;100.00
51271;BME280;37744;50.960;4.136;2022-08-19T06:14:43;101002.13;;;17.48;100.00
51271;BME280;37744;50.960;4.136;2022-08-19T06:17:09;101012.19;;;17.57;100.00
51271;BME280;37744;50.960;4.136;2022-08-19T06:19:39;100997.50;;;17.66;100.00
51271;BME280;37744;50.960;4.136;2022-08-19T06:22:12;101001.88;;;17.67;100.00
51271;BME280;37744;50.960;4.136;2022-08-19T06:24:44;101005.97;;;17.73;100.00
51271;BME280;37744;50.960;4.136;2022-08-19T06:27:14;101012.97;;;17.74;100.00
51271;BME280;37744;50.960;4.136;2022-08-19T06:29:44;101005.75;;;17.76;100.00
51271;BME280;37744;50.960;4.136;2022-08-19T06:32:11;101001.47;;;17.73;100.00
51271;BME280;37744;50.960;4.136;2022-08-19T06:34:42;100999.22;;;17.82;100.00
51271;BME280;37744;50.960;4.136;2022-08-19T06:37:11;100997.88;;;17.74;100.00
51271;BME280;37744;50.960;4.136;2022-08-19T06:39:39;101000.63;;;17.87;100.00
51271;BME280;37744;50.960;4.136;2022-08-19T06:42:06;101007.91;;;17.98;100.00
51271;BME280;37744;50.960;4.136;2022-08-19T06:44:35;101008.41;;;18.05;100.00
51271;BME280;37744;50.960;4.136;2022-08-19T06:47:14;101010.03;;;18.08;100.00
51271;BME280;37744;50.960;4.136;2022-08-19T06:49:43;101005.38;;;18.11;100.00
51271;BME280;37744;50.960;4.136;2022-08-19T06:52:13;101002.66;;;18.13;100.00
51271;BME280;37744;50.960;4.136;2022-08-19T06:54:42;101007.56;;;18.19;100.00
51271;BME280;37744;50.960;4.136;2022-08-19T06:57:08;101014.00;;;18.29;100.00
51271;BME280;37744;50.960;4.136;2022-08-19T06:59:39;101006.78;;;18.31;100.00
51271;BME280;37744;50.960;4.136;2022-08-19T07:02:07;101015.31;;;18.37;100.00
51271;BME280;37744;50.960;4.136;2022-08-19T07:04:35;101004.94;;;18.46;100.00
51271;BME280;37744;50.960;4.136;2022-08-19T07:07:06;101008.75;;;18.42;100.00
51271;BME280;37744;50.960;4.136;2022-08-19T07:09:39;101013.00;;;18.45;100.00
51271;BME280;37744;50.960;4.136;2022-08-19T07:12:09;101010.94;;;18.63;100.00
51271;BME280;37744;50.960;4.136;2022-08-19T07:14:38;101019.13;;;18.87;100.00
51271;BME280;37744;50.960;4.136;2022-08-19T07:17:08;101009.25;;;18.89;100.00
51271;BME280;37744;50.960;4.136;2022-08-19T07:19:41;101021.59;;;18.90;100.00
51271;BME280;37744;50.960;4.136;2022-08-19T07:22:09;101013.91;;;18.86;100.00
51271;BME280;37744;50.960;4.136;2022-08-19T07:24:37;101002.97;;;18.90;100.00
51271;BME280;37744;50.960;4.136;2022-08-19T07:27:08;101010.50;;;19.11;100.00
51271;BME280;37744;50.960;4.136;2022-08-19T07:29:37;101011.38;;;19.25;100.00
51271;BME280;37744;50.960;4.136;2022-08-19T07:32:06;101006.78;;;19.27;100.00
51271;BME280;37744;50.960;4.136;2022-08-19T07:34:32;101024.38;;;19.29;100.00
51271;BME280;37744;50.960;4.136;2022-08-19T07:37:05;101018.00;;;19.32;100.00
51271;BME280;37744;50.960;4.136;2022-08-19T07:39:33;101019.91;;;19.43;100.00
51271;BME280;37744;50.960;4.136;2022-08-19T07:42:05;101013.84;;;19.54;100.00
51271;BME280;37744;50.960;4.136;2022-08-19T07:44:36;101012.91;;;19.55;100.00
51271;BME280;37744;50.960;4.136;2022-08-19T07:47:03;101009.59;;;19.64;100.00
51271;BME280;37744;50.960;4.136;2022-08-19T07:49:32;101014.38;;;19.72;100.00
51271;BME280;37744;50.960;4.136;2022-08-19T07:52:03;101019.16;;;19.67;100.00
51271;BME280;37744;50.960;4.136;2022-08-19T07:54:32;101022.47;;;19.70;100.00
51271;BME280;37744;50.960;4.136;2022-08-19T07:57:03;101021.66;;;19.70;100.00
51271;BME280;37744;50.960;4.136;2022-08-19T07:59:30;101036.53;;;19.72;100.00
51271;BME280;37744;50.960;4.136;2022-08-19T08:02:05;101032.72;;;19.77;100.00
51271;BME280;37744;50.960;4.136;2022-08-19T08:04:31;101039.53;;;19.81;100.00
51271;BME280;37744;50.960;4.136;2022-08-19T08:07:15;101033.97;;;19.84;100.00
51271;BME280;37744;50.960;4.136;2022-08-19T08:10:01;101034.94;;;19.83;100.00
51271;BME280;37744;50.960;4.136;2022-08-19T08:12:39;101035.59;;;19.86;100.00
51271;BME280;37744;50.960;4.136;2022-08-19T08:15:14;101031.63;;;19.92;100.00
51271;BME280;37744;50.960;4.136;2022-08-19T08:17:46;101035.50;;;20.01;100.00
51271;BME280;37744;50.960;4.136;2022-08-19T08:20:13;101037.84;;;20.06;100.00
51271;BME280;37744;50.960;4.136;2022-08-19T08:22:44;101041.59;;;20.03;100.00
51271;BME280;37744;50.960;4.136;2022-08-19T08:25:32;101039.66;;;20.05;100.00
51271;BME280;37744;50.960;4.136;2022-08-19T08:27:57;101053.63;;;20.09;100.00
51271;BME280;37744;50.960;4.136;2022-08-19T08:30:27;101062.38;;;20.11;100.00
51271;BME280;37744;50.960;4.136;2022-08-19T08:32:59;101055.13;;;20.13;100.00
51271;BME280;37744;50.960;4.136;2022-08-19T08:35:26;101061.63;;;20.09;100.00
51271;BME280;37744;50.960;4.136;2022-08-19T08:37:54;101064.31;;;20.09;100.00
51271;BME280;37744;50.960;4.136;2022-08-19T08:43:30;101058.00;;;20.10;100.00
51271;BME280;37744;50.960;4.136;2022-08-19T08:46:17;101064.72;;;20.15;100.00
51271;BME280;37744;50.960;4.136;2022-08-19T08:51:42;101054.00;;;20.28;100.00
51271;BME280;37744;50.960;4.136;2022-08-19T08:54:12;101067.44;;;20.40;100.00
51271;BME280;37744;50.960;4.136;2022-08-19T08:56:43;101061.44;;;20.36;100.00
51271;BME280;37744;50.960;4.136;2022-08-19T08:59:30;101058.34;;;20.42;100.00
51271;BME280;37744;50.960;4.136;2022-08-19T09:01:59;101070.91;;;20.53;100.00
51271;BME280;37744;50.960;4.136;2022-08-19T09:04:30;101063.38;;;20.47;99.73
51271;BME280;37744;50.960;4.136;2022-08-19T09:09:41;101068.94;;;20.44;100.00
51271;BME280;37744;50.960;4.136;2022-08-19T09:15:02;101062.72;;;20.43;100.00
51271;BME280;37744;50.960;4.136;2022-08-19T09:17:32;101073.81;;;20.50;100.00
51271;BME280;37744;50.960;4.136;2022-08-19T09:20:15;101061.75;;;20.44;100.00
51271;BME280;37744;50.960;4.136;2022-08-19T09:22:42;101064.00;;;20.51;100.00
51271;BME280;37744;50.960;4.136;2022-08-19T09:25:16;101064.72;;;20.53;100.00
51271;BME280;37744;50.960;4.136;2022-08-19T09:27:42;101069.75;;;20.57;100.00
51271;BME280;37744;50.960;4.136;2022-08-19T09:30:31;101070.16;;;20.51;100.00
51271;BME280;37744;50.960;4.136;2022-08-19T09:33:00;101071.84;;;20.65;100.00
51271;BME280;37744;50.960;4.136;2022-08-19T09:35:28;101075.88;;;20.71;100.00
51271;BME280;37744;50.960;4.136;2022-08-19T09:37:57;101079.06;;;20.76;99.78
51271;BME280;37744;50.960;4.136;2022-08-19T09:40:27;101076.72;;;20.84;99.60
51271;BME280;37744;50.960;4.136;2022-08-19T09:42:57;101077.69;;;20.83;99.40
51271;BME280;37744;50.960;4.136;2022-08-19T09:45:27;101077.50;;;20.98;100.00
51271;BME280;37744;50.960;4.136;2022-08-19T09:47:53;101078.03;;;21.03;99.28
51271;BME280;37744;50.960;4.136;2022-08-19T09:50:22;101075.34;;;21.03;98.65
51271;BME280;37744;50.960;4.136;2022-08-19T09:52:51;101073.41;;;21.05;98.70
51271;BME280;37744;50.960;4.136;2022-08-19T09:55:19;101084.53;;;20.99;98.59
51271;BME280;37744;50.960;4.136;2022-08-19T09:57:47;101080.69;;;21.03;99.02
51271;BME280;37744;50.960;4.136;2022-08-19T10:00:12;101080.56;;;21.05;99.31
51271;BME280;37744;50.960;4.136;2022-08-19T10:02:39;101081.31;;;21.07;99.24
51271;BME280;37744;50.960;4.136;2022-08-19T10:05:15;101077.44;;;21.11;97.64
51271;BME280;37744;50.960;4.136;2022-08-19T10:08:33;101079.69;;;21.28;98.67
51271;BME280;37744;50.960;4.136;2022-08-19T10:11:02;101073.91;;;21.46;96.97
51271;BME280;37744;50.960;4.136;2022-08-19T10:13:30;101076.25;;;21.62;95.84
51271;BME280;37744;50.960;4.136;2022-08-19T10:16:05;101069.88;;;21.76;95.99
51271;BME280;37744;50.960;4.136;2022-08-19T10:18:34;101069.28;;;21.84;96.03
51271;BME280;37744;50.960;4.136;2022-08-19T10:21:15;101067.81;;;21.80;93.90
51271;BME280;37744;50.960;4.136;2022-08-19T10:23:44;101072.31;;;21.79;96.31
51271;BME280;37744;50.960;4.136;2022-08-19T10:26:29;101081.31;;;21.78;95.97
51271;BME280;37744;50.960;4.136;2022-08-19T10:28:56;101075.81;;;21.68;95.84
51271;BME280;37744;50.960;4.136;2022-08-19T10:31:25;101075.72;;;21.46;96.09
51271;BME280;37744;50.960;4.136;2022-08-19T10:33:54;101075.19;;;21.29;97.31
51271;BME280;37744;50.960;4.136;2022-08-19T10:36:29;101070.47;;;21.33;98.39
51271;BME280;37744;50.960;4.136;2022-08-19T10:39:00;101077.28;;;21.37;98.04
51271;BME280;37744;50.960;4.136;2022-08-19T10:41:30;101076.72;;;21.56;96.71
51271;BME280;37744;50.960;4.136;2022-08-19T10:44:04;101080.03;;;21.60;96.08
51271;BME280;37744;50.960;4.136;2022-08-19T10:46:32;101077.28;;;21.73;95.85
51271;BME280;37744;50.960;4.136;2022-08-19T10:49:00;101084.38;;;21.96;95.55
51271;BME280;37744;50.960;4.136;2022-08-19T10:51:30;101084.38;;;21.96;94.47
51271;BME280;37744;50.960;4.136;2022-08-19T10:54:17;101077.50;;;21.69;95.27
51271;BME280;37744;50.960;4.136;2022-08-19T10:56:42;101082.75;;;21.82;96.41
51271;BME280;37744;50.960;4.136;2022-08-19T10:59:25;101083.63;;;21.83;95.24
51271;BME280;37744;50.960;4.136;2022-08-19T11:01:54;101077.66;;;21.79;95.43
51271;BME280;37744;50.960;4.136;2022-08-19T11:04:25;101076.44;;;21.72;95.43
51271;BME280;37744;50.960;4.136;2022-08-19T11:06:52;101076.44;;;21.83;94.49
51271;BME280;37744;50.960;4.136;2022-08-19T11:09:23;101080.72;;;21.86;93.81
51271;BME280;37744;50.960;4.136;2022-08-19T11:11:51;101080.47;;;22.01;93.54
51271;BME280;37744;50.960;4.136;2022-08-19T11:14:20;101080.97;;;22.17;92.48
51271;BME280;37744;50.960;4.136;2022-08-19T11:16:50;101080.34;;;22.36;91.65
51271;BME280;37744;50.960;4.136;2022-08-19T11:19:19;101073.66;;;22.53;90.36
51271;BME280;37744;50.960;4.136;2022-08-19T11:21:48;101070.13;;;22.53;90.58
51271;BME280;37744;50.960;4.136;2022-08-19T11:24:16;101067.41;;;22.64;90.81
51271;BME280;37744;50.960;4.136;2022-08-19T11:26:44;101074.81;;;22.72;90.15
51271;BME280;37744;50.960;4.136;2022-08-19T11:29:12;101073.72;;;22.75;90.05
51271;BME280;37744;50.960;4.136;2022-08-19T11:31:42;101084.78;;;22.81;89.05
51271;BME280;37744;50.960;4.136;2022-08-19T11:34:10;101073.63;;;22.65;88.68
51271;BME280;37744;50.960;4.136;2022-08-19T11:36:41;101077.03;;;22.67;89.32
51271;BME280;37744;50.960;4.136;2022-08-19T11:39:11;101076.78;;;22.59;89.56
51271;BME280;37744;50.960;4.136;2022-08-19T11:41:37;101073.66;;;22.53;90.57
51271;BME280;37744;50.960;4.136;2022-08-19T11:44:06;101080.72;;;22.55;89.19
51271;BME280;37744;50.960;4.136;2022-08-19T11:46:35;101074.38;;;22.33;90.32
51271;BME280;37744;50.960;4.136;2022-08-19T11:49:01;101072.44;;;22.58;88.46
51271;BME280;37744;50.960;4.136;2022-08-19T11:51:31;101075.03;;;22.80;88.61
51271;BME280;37744;50.960;4.136;2022-08-19T11:53:58;101072.59;;;22.89;88.50
51271;BME280;37744;50.960;4.136;2022-08-19T11:56:25;101068.66;;;22.93;87.94
51271;BME280;37744;50.960;4.136;2022-08-19T11:58:56;101068.03;;;23.01;87.15
51271;BME280;37744;50.960;4.136;2022-08-19T12:01:25;101068.25;;;23.09;87.08
51271;BME280;37744;50.960;4.136;2022-08-19T12:03:54;101065.44;;;23.11;86.36
51271;BME280;37744;50.960;4.136;2022-08-19T12:06:25;101073.03;;;23.27;86.31
51271;BME280;37744;50.960;4.136;2022-08-19T12:08:55;101069.91;;;23.43;85.26
51271;BME280;37744;50.960;4.136;2022-08-19T12:11:22;101067.66;;;23.59;84.47
51271;BME280;37744;50.960;4.136;2022-08-19T12:13:50;101065.16;;;23.46;84.65
51271;BME280;37744;50.960;4.136;2022-08-19T12:16:20;101066.59;;;23.50;84.45
51271;BME280;37744;50.960;4.136;2022-08-19T12:18:47;101067.72;;;23.48;83.34
51271;BME280;37744;50.960;4.136;2022-08-19T12:21:22;101061.03;;;23.42;83.12
51271;BME280;37744;50.960;4.136;2022-08-19T12:23:50;101057.31;;;23.55;82.56
51271;BME280;37744;50.960;4.136;2022-08-19T12:26:19;101070.25;;;23.71;82.17
51271;BME280;37744;50.960;4.136;2022-08-19T12:28:45;101055.88;;;23.82;81.80
51271;BME280;37744;50.960;4.136;2022-08-19T12:31:17;101058.53;;;24.03;81.52
51271;BME280;37744;50.960;4.136;2022-08-19T12:33:46;101058.03;;;24.09;79.28
51271;BME280;37744;50.960;4.136;2022-08-19T12:36:15;101055.44;;;24.39;78.58
51271;BME280;37744;50.960;4.136;2022-08-19T12:38:48;101056.31;;;24.49;77.69
51271;BME280;37744;50.960;4.136;2022-08-19T12:41:20;101063.97;;;24.73;76.78
51271;BME280;37744;50.960;4.136;2022-08-19T12:43:47;101065.72;;;24.84;75.04
51271;BME280;37744;50.960;4.136;2022-08-19T12:46:17;101066.63;;;24.54;76.20
51271;BME280;37744;50.960;4.136;2022-08-19T12:48:43;101064.28;;;24.70;75.91
51271;BME280;37744;50.960;4.136;2022-08-19T12:51:12;101051.38;;;24.54;76.76
51271;BME280;37744;50.960;4.136;2022-08-19T12:53:39;101057.69;;;24.43;76.39
51271;BME280;37744;50.960;4.136;2022-08-19T12:58:33;101050.44;;;24.85;76.14
51271;BME280;37744;50.960;4.136;2022-08-19T13:03:30;101046.72;;;24.66;76.07
51271;BME280;37744;50.960;4.136;2022-08-19T13:08:26;101038.72;;;24.86;74.52
51271;BME280;37744;50.960;4.136;2022-08-19T13:10:51;101038.38;;;24.69;75.87
51271;BME280;37744;50.960;4.136;2022-08-19T13:13:23;101036.94;;;24.45;76.75
51271;BME280;37744;50.960;4.136;2022-08-19T13:15:51;101045.97;;;24.44;76.54
51271;BME280;37744;50.960;4.136;2022-08-19T13:18:19;101046.56;;;24.48;76.55
51271;BME280;37744;50.960;4.136;2022-08-19T13:20:47;101041.19;;;24.58;76.33
51271;BME280;37744;50.960;4.136;2022-08-19T13:23:13;101035.00;;;25.36;74.39